Huvudsida
METAR-TAF:

METAR-TAF

Flygplatser :

Tromsø flygplats

Tromsø, Norge

latitud: 69-41N, longitud: 018-55E, höjd: 1 m

Aktuellt väderrapport

Denna rapport gjordes för 51 minuter sedan, klockan 00:20 UTC
Vind 26 kt från sydväst
Temperatur 6°C
Fuktighet 81%
Tryck 1010 hPa
Sikt 10 km eller mer
Få moln på en höjd av 1800 ft
Spridda moln på en höjd av 3600 ft
Brutna moln på en höjd av 4800 ft

METAR: ENTC 210020Z 23026KT 9999 FEW018 SCT036 BKN048 06/03 Q1010 RMK WIND 2600FT 22023KT

Tid: 03:11 (01:11 UTC)

Väderprognos

Prognos gäller från 21 kl. 00 UTC till 21 kl. 24 UTC
Vind 18 kt från väst/sydväst
Sikt 10 km eller mer
Få moln på en höjd av 2000 ft, Högtornande cumulus.
Brutna moln på en höjd av 3000 ft
lätta regnskurar
Temporärt
från 21 kl. 00 UTC till 21 kl. 18 UTC
Vind 25 kt från sydväst i byarna ända upp till 35 kt

TAF: ENTC 2100/2124 24018KT 9999 -SHRA FEW020TCU BKN030 TEMPO 2100/2118 23025G35KT

Aktuella väderrapporter och prognoser från 4000 flygplatser (METAR- och TAF-rapporter).

De tillgängliga stationerna syns som gula och röda prickar på kartan.

För musen över prickarna för att se namnen på stationerna.

Klicka sedan för att få väderrapporter och prognoser.

För att ändra kartan: Klicka på de gröna knapparna med ett svart kors på för att zooma in; den gröna knappen med ett streck på för att zooma ut; eller på de gröna pilarna för angränsande kartor.


METAR-TAF: